createdAt,value
2023-02-13T00:04:14.568Z,0
2023-02-13T00:09:13.940Z,0
2023-02-13T00:14:15.406Z,0
2023-02-13T00:19:11.272Z,0
2023-02-13T00:24:11.798Z,0
2023-02-13T00:29:11.333Z,0
2023-02-13T00:34:10.991Z,0
2023-02-13T00:39:08.286Z,0
2023-02-13T00:44:08.381Z,0
2023-02-13T00:49:07.388Z,0
2023-02-13T00:54:07.183Z,0
2023-02-13T00:58:54.659Z,0
2023-02-13T01:03:55.087Z,0
2023-02-13T01:08:54.758Z,0
2023-02-13T01:13:54.470Z,0
2023-02-13T01:18:55.640Z,0
2023-02-13T01:23:52.136Z,0
2023-02-13T01:28:52.447Z,0
2023-02-13T01:33:51.510Z,0
2023-02-13T01:38:51.049Z,0
2023-02-13T01:43:50.489Z,0
2023-02-13T01:48:50.579Z,0
2023-02-13T01:53:49.814Z,0
2023-02-13T01:58:51.812Z,0
2023-02-13T02:03:47.685Z,0
2023-02-13T02:08:48.746Z,0
2023-02-13T02:13:48.047Z,0
2023-02-13T02:18:47.972Z,0
2023-02-13T02:23:45.175Z,0
2023-02-13T02:28:45.070Z,0
2023-02-13T02:33:44.873Z,0
2023-02-13T02:38:44.708Z,0
2023-02-13T02:43:43.494Z,0
2023-02-13T02:53:42.872Z,0
2023-02-13T02:58:42.797Z,0
2023-02-13T03:03:44.068Z,0
2023-02-13T03:08:40.697Z,0
2023-02-13T03:13:39.941Z,0
2023-02-13T03:18:39.416Z,0
2023-02-13T03:23:39.761Z,0
2023-02-13T03:28:39.559Z,0
2023-02-13T03:33:38.824Z,0
2023-02-13T03:38:38.178Z,0
2023-02-13T03:43:39.504Z,0
2023-02-13T03:48:35.939Z,0
2023-02-13T03:53:35.706Z,0
2023-02-13T03:59:38.045Z,0
2023-02-13T04:03:36.183Z,0
2023-02-13T04:08:34.438Z,0
2023-02-13T04:18:34.818Z,0
2023-02-13T04:23:31.322Z,0
2023-02-13T04:28:32.335Z,0
2023-02-13T04:33:30.425Z,0
2023-02-13T04:38:30.450Z,0
2023-02-13T04:43:38.853Z,0
2023-02-13T04:48:41.369Z,0
2023-02-13T04:53:40.400Z,0
2023-02-13T04:58:37.080Z,0
2023-02-13T04:59:58.677Z,0
2023-02-13T05:04:58.480Z,0
2023-02-13T05:09:59.382Z,0
2023-02-13T05:14:55.488Z,0
2023-02-13T05:19:55.910Z,0
2023-02-13T05:24:54.832Z,0
2023-02-13T05:34:52.623Z,0
2023-02-13T05:39:52.274Z,0
2023-02-13T05:44:51.885Z,0
2023-02-13T05:49:51.000Z,0
2023-02-13T05:54:50.027Z,0
2023-02-13T05:58:52.884Z,0
2023-02-13T06:03:53.510Z,0
2023-02-13T06:08:52.714Z,0
2023-02-13T06:13:53.862Z,0
2023-02-13T06:18:49.513Z,0
2023-02-13T06:23:50.987Z,0
2023-02-13T06:28:50.588Z,0
2023-02-13T06:33:51.155Z,0
2023-02-13T06:38:47.758Z,0
2023-02-13T06:43:47.510Z,0
2023-02-13T06:48:46.651Z,0
2023-02-13T06:53:46.891Z,0.01
2023-02-13T06:58:33.359Z,0.01
2023-02-13T07:03:33.103Z,0.02
2023-02-13T07:08:31.432Z,0.02
2023-02-13T07:13:31.567Z,0.03
2023-02-13T07:18:30.397Z,0.03
2023-02-13T07:23:30.580Z,0.04
2023-02-13T07:28:30.753Z,0.05
2023-02-13T07:33:30.291Z,0.06
2023-02-13T07:38:31.777Z,0.06
2023-02-13T07:43:38.640Z,0.07
2023-02-13T07:48:38.190Z,0.08
2023-02-13T07:53:38.515Z,0.09
2023-02-13T07:58:12.830Z,0.1
2023-02-13T07:59:33.786Z,0.1
2023-02-13T08:04:33.480Z,0.11
2023-02-13T08:09:34.665Z,0.12
2023-02-13T08:14:31.111Z,0.13
2023-02-13T08:19:31.786Z,0.14
2023-02-13T08:24:31.094Z,0.15
2023-02-13T08:29:31.613Z,0.16
2023-02-13T08:34:39.378Z,0.17
2023-02-13T08:39:38.508Z,0.18
2023-02-13T08:44:39.080Z,0.19
2023-02-13T08:49:37.652Z,0.19
2023-02-13T08:54:38.116Z,0.2
2023-02-13T08:59:00.435Z,0.21
2023-02-13T09:04:00.391Z,0.22
2023-02-13T09:08:57.672Z,0.22
2023-02-13T09:13:57.727Z,0.24
2023-02-13T09:18:57.016Z,0.25
2023-02-13T09:23:56.966Z,0.25
2023-02-13T09:28:56.152Z,0.27
2023-02-13T09:33:56.443Z,0.28
2023-02-13T09:38:56.194Z,0.28
2023-02-13T09:43:56.411Z,0.3
2023-02-13T09:48:54.281Z,0.31
2023-02-13T09:53:54.208Z,0.33
2023-02-13T10:03:53.473Z,0.32
2023-02-13T10:08:52.852Z,0.35
2023-02-13T10:13:52.601Z,0.35
2023-02-13T10:18:52.805Z,0.33
2023-02-13T10:23:52.337Z,0.37
2023-02-13T10:28:53.936Z,0.37
2023-02-13T10:33:49.593Z,0.37
2023-02-13T10:38:50.685Z,0.37
2023-02-13T10:43:49.738Z,0.41
2023-02-13T10:48:49.438Z,0.37
2023-02-13T10:53:46.611Z,0.4
2023-02-13T10:58:46.859Z,0.45
2023-02-13T11:03:46.096Z,0.46
2023-02-13T11:08:46.444Z,0.46
2023-02-13T11:13:45.940Z,0.46
2023-02-13T11:18:47.178Z,0.47
2023-02-13T11:23:46.614Z,0.47
2023-02-13T11:28:47.411Z,0.47
2023-02-13T11:33:44.839Z,0.47
2023-02-13T11:38:44.891Z,0.47
2023-02-13T11:43:44.823Z,0.47
2023-02-13T11:48:44.466Z,0.47
2023-02-13T11:53:43.718Z,0.47
2023-02-13T11:58:44.140Z,0.47
2023-02-13T12:00:05.110Z,0.47
2023-02-13T12:05:04.594Z,0.46
2023-02-13T12:10:05.949Z,0.46
2023-02-13T12:15:02.881Z,0.46
2023-02-13T12:20:03.243Z,0.46
2023-02-13T12:25:01.929Z,0.45
2023-02-13T12:30:02.729Z,0.44
2023-02-13T12:34:59.526Z,0.44
2023-02-13T12:39:59.551Z,0.43
2023-02-13T12:44:58.688Z,0.42
2023-02-13T12:49:58.533Z,0.42
2023-02-13T12:54:56.646Z,0.41
2023-02-13T12:59:17.044Z,0.4
2023-02-13T13:04:17.035Z,0.39
2023-02-13T13:09:16.394Z,0.38
2023-02-13T13:14:14.113Z,0.37
2023-02-13T13:19:13.697Z,0.36
2023-02-13T13:24:13.743Z,0.35
2023-02-13T13:29:12.950Z,0.34
2023-02-13T13:34:12.216Z,0.33
2023-02-13T13:39:11.720Z,0.32
2023-02-13T13:44:12.076Z,0.31
2023-02-13T13:49:11.881Z,0.3
2023-02-13T13:54:13.477Z,0.29
2023-02-13T13:58:56.030Z,0.27
2023-02-13T14:03:56.195Z,0.26
2023-02-13T14:08:55.261Z,0.25
2023-02-13T14:13:55.126Z,0.24
2023-02-13T14:18:54.821Z,0.23
2023-02-13T14:23:53.756Z,0.22
2023-02-13T14:28:53.034Z,0.21
2023-02-13T14:33:52.707Z,0.19
2023-02-13T14:38:49.182Z,0.18
2023-02-13T14:43:49.049Z,0.17
2023-02-13T14:48:47.726Z,0.16
2023-02-13T14:58:45.210Z,0.14
2023-02-13T15:00:05.995Z,0.14
2023-02-13T15:05:05.257Z,0.13
2023-02-13T15:10:04.808Z,0.11
2023-02-13T15:15:04.158Z,0.1
2023-02-13T15:20:03.850Z,0.1
2023-02-13T15:25:03.528Z,0.09
2023-02-13T15:30:03.625Z,0.08
2023-02-13T15:35:04.328Z,0.07
2023-02-13T15:39:59.790Z,0.06
2023-02-13T15:44:59.852Z,0.05
2023-02-13T15:49:58.939Z,0.05
2023-02-13T15:54:58.617Z,0.04
2023-02-13T15:59:18.206Z,0.03
2023-02-13T16:04:18.306Z,0.03
2023-02-13T16:09:17.756Z,0.02
2023-02-13T16:14:15.407Z,0.02
2023-02-13T16:19:14.454Z,0.01
2023-02-13T16:24:14.188Z,0.01
2023-02-13T16:29:13.548Z,0.01
2023-02-13T16:34:12.883Z,0
2023-02-13T16:39:11.948Z,0
2023-02-13T16:44:12.209Z,0
2023-02-13T16:49:11.497Z,0
2023-02-13T16:54:12.752Z,0
2023-02-13T16:58:56.566Z,0
2023-02-13T17:03:57.080Z,0
2023-02-13T17:08:55.688Z,0
2023-02-13T17:13:56.092Z,0
2023-02-13T17:18:53.236Z,0
2023-02-13T17:23:53.275Z,0
2023-02-13T17:28:52.051Z,0
2023-02-13T17:33:52.114Z,0
2023-02-13T17:38:51.303Z,0
2023-02-13T17:43:50.660Z,0
2023-02-13T17:48:49.905Z,0
2023-02-13T17:53:49.876Z,0
2023-02-13T17:58:47.114Z,0
2023-02-13T18:00:08.195Z,0
2023-02-13T18:05:07.298Z,0
2023-02-13T18:10:07.165Z,0
2023-02-13T18:15:06.108Z,0
2023-02-13T18:20:05.479Z,0
2023-02-13T18:25:06.121Z,0
2023-02-13T18:30:05.267Z,0
2023-02-13T18:35:06.298Z,0
2023-02-13T18:40:03.314Z,0
2023-02-13T18:45:03.028Z,0
2023-02-13T18:50:02.379Z,0
2023-02-13T18:55:02.091Z,0
2023-02-13T18:59:22.623Z,0
2023-02-13T19:04:22.768Z,0
2023-02-13T19:09:22.626Z,0
2023-02-13T19:14:21.633Z,0
2023-02-13T19:19:20.011Z,0
2023-02-13T19:24:19.896Z,0
2023-02-13T19:29:18.998Z,0
2023-02-13T19:34:19.258Z,0
2023-02-13T19:39:16.201Z,0
2023-02-13T19:44:16.120Z,0
2023-02-13T19:49:15.443Z,0
2023-02-13T19:54:15.012Z,0
2023-02-13T19:59:04.374Z,0
2023-02-13T20:04:04.356Z,0
2023-02-13T20:09:04.168Z,0
2023-02-13T20:14:03.576Z,0
2023-02-13T20:19:04.617Z,0
2023-02-13T20:24:01.170Z,0
2023-02-13T20:29:01.268Z,0
2023-02-13T20:34:00.609Z,0
2023-02-13T20:39:00.541Z,0
2023-02-13T20:43:57.734Z,0
2023-02-13T20:48:58.220Z,0
2023-02-13T20:53:56.750Z,0
2023-02-13T20:58:43.291Z,0
2023-02-13T21:03:41.230Z,0
2023-02-13T21:08:40.571Z,0
2023-02-13T21:13:39.884Z,0
2023-02-13T21:18:39.387Z,0
2023-02-13T21:23:39.034Z,0
2023-02-13T21:28:38.612Z,0
2023-02-13T21:33:38.514Z,0
2023-02-13T21:38:38.313Z,0
2023-02-13T21:43:39.259Z,0
2023-02-13T21:48:35.732Z,0
2023-02-13T21:53:36.008Z,0
2023-02-13T21:58:22.389Z,0
2023-02-13T22:03:22.643Z,0
2023-02-13T22:08:19.669Z,0
2023-02-13T22:13:20.143Z,0
2023-02-13T22:18:19.050Z,0
2023-02-13T22:23:20.048Z,0
2023-02-13T22:28:18.218Z,0
2023-02-13T22:33:18.079Z,0
2023-02-13T22:38:22.246Z,0
2023-02-13T22:43:17.723Z,0
2023-02-13T22:48:16.662Z,0
2023-02-13T22:58:14.933Z,0
2023-02-13T22:59:40.350Z,0
2023-02-13T23:04:37.367Z,0
2023-02-13T23:09:35.499Z,0
2023-02-13T23:14:36.290Z,0
2023-02-13T23:19:35.743Z,0
2023-02-13T23:25:36.952Z,0
2023-02-13T23:29:33.353Z,0
2023-02-13T23:34:33.869Z,0
2023-02-13T23:39:32.948Z,0
2023-02-13T23:44:32.739Z,0
2023-02-13T23:49:32.709Z,0
2023-02-13T23:54:32.712Z,0
2023-02-13T23:58:52.551Z,0
